Irving, TX (75014)

6:39 AM CST on February 09, 2016 (GMT -0600)
Toler Lane, Irving, Texas USA | | Change Station
CLOSE
Current Station
Personal Weather Station
Location: Irving, TX
Elevation: 551 ft
Nearby Weather Stations
Active Advisory: Flood Warning

Elev 551 ft 32.84 °N, 96.96 °W | Updated 9 seconds ago

Clear
Clear
39.5 °F
Feels Like 40 °F
N
0.0
Wind Variable Wind from NNW
Gusts 0.1 mph

Today
High -- | Low -- °F
--% Chance of Precip.
Yesterday
High -- | Low -- °F
Precip. -- in
Pressure 30.28 in
Visibility 10.0 miles
Clouds Clear
Windchill 40 °F
Dew Point 16 °F
Humidity 38%
Rainfall 0.00 in
Snow Depth Not available.
7:17 AM 6:07 PM
New Moon, 1% visible
METAR KDFW 091153Z 30012KT 10SM CLR 04/M13 A3028 RMK AO2 SLP254 T00441133 10067 20039 55000
Pressure 30.28 in
Visibility 10.0 miles
Clouds Clear
Windchill 40 °F
Dew Point 16 °F
Humidity 38%
Rainfall 0.00 in
Snow Depth Not available.
7:17 AM 6:07 PM
New Moon, 1% visible
METAR KDFW 091153Z 30012KT 10SM CLR 04/M13 A3028 RMK AO2 SLP254 T00441133 10067 20039 55000

10-Day Weather Forecast

Almanac

Astronomy

Feb. 09, 2016 Rise Set
Actual Time
Civil Twilight
Nautical Twilight
Astronomical Twilight
Moon
Length of Visible Light
Length of Day
Tomorrow will be .
, % of the Moon is Illuminated

Today's Extremes

State Highs State Lows

Community

WunderPhotos

Upload Photos

1,891,589 photos uploaded!

WunderBlog® & News

Nearby

Air Quality

  Air Quality AQ Index Pollutant
Not available.

Snow Depth

Station Depth Elevation

Earthquake Activity

City Distance Mag. Time & Date
Minimum magnitude displayed is 2.5.

Coastal Water Temperatures

Place Temperature

Stations

Nearby Weather Stations

Station Location Temp. Windchill Dew Point Humidity Wind Precip. Elev Updated Type
                   

Watches & Warnings

Flood Warning
Issued: 6:42 PM CST Feb. 8, 2016 – National Weather Service

The Flood Warning continues for
the Elm Fork Trinity River near Carrollton.
* At 0615 PM Monday the stage was 8.37 feet.
* Flood stage is 8 feet.
* Minor flooding is occurring and minor flooding is forecast.
* Forecast... the river will remain near 8.4 feet for the next few
days.


Lat... Lon 3300 9700 3287 9699 3287 9687 3300 9688